sensor_id;sensor_type;location;lat;lon;timestamp;P1;durP1;ratioP1;P2;durP2;ratioP2
23046;SDS011;11691;51.462;6.902;2022-09-01T00:00:59;5.07;;;1.33;;
23046;SDS011;11691;51.462;6.902;2022-09-01T00:03:27;4.93;;;1.25;;
23046;SDS011;11691;51.462;6.902;2022-09-01T00:05:53;1.92;;;1.20;;
23046;SDS011;11691;51.462;6.902;2022-09-01T00:08:21;3.17;;;0.82;;
23046;SDS011;11691;51.462;6.902;2022-09-01T00:10:48;4.55;;;1.08;;
23046;SDS011;11691;51.462;6.902;2022-09-01T00:13:14;2.20;;;0.90;;
23046;SDS011;11691;51.462;6.902;2022-09-01T00:15:40;3.85;;;1.00;;
23046;SDS011;11691;51.462;6.902;2022-09-01T00:18:07;4.53;;;1.23;;
23046;SDS011;11691;51.462;6.902;2022-09-01T00:20:33;3.10;;;1.00;;
23046;SDS011;11691;51.462;6.902;2022-09-01T00:22:59;2.65;;;0.88;;
23046;SDS011;11691;51.462;6.902;2022-09-01T00:25:25;2.42;;;0.90;;
23046;SDS011;11691;51.462;6.902;2022-09-01T00:27:52;3.45;;;0.90;;
23046;SDS011;11691;51.462;6.902;2022-09-01T00:30:19;2.88;;;1.08;;
23046;SDS011;11691;51.462;6.902;2022-09-01T00:32:45;3.60;;;1.35;;
23046;SDS011;11691;51.462;6.902;2022-09-01T00:35:13;2.90;;;1.00;;
23046;SDS011;11691;51.462;6.902;2022-09-01T00:37:40;1.45;;;0.98;;
23046;SDS011;11691;51.462;6.902;2022-09-01T00:40:06;4.15;;;1.30;;
23046;SDS011;11691;51.462;6.902;2022-09-01T00:42:33;2.58;;;1.10;;
23046;SDS011;11691;51.462;6.902;2022-09-01T00:44:59;6.47;;;1.08;;
23046;SDS011;11691;51.462;6.902;2022-09-01T00:47:25;2.47;;;1.08;;
23046;SDS011;11691;51.462;6.902;2022-09-01T00:49:51;2.95;;;1.10;;
23046;SDS011;11691;51.462;6.902;2022-09-01T00:52:20;3.78;;;1.00;;
23046;SDS011;11691;51.462;6.902;2022-09-01T00:54:48;3.55;;;1.20;;
23046;SDS011;11691;51.462;6.902;2022-09-01T00:57:17;1.63;;;1.00;;
23046;SDS011;11691;51.462;6.902;2022-09-01T00:59:49;2.17;;;1.02;;
23046;SDS011;11691;51.462;6.902;2022-09-01T01:02:16;1.95;;;1.10;;
23046;SDS011;11691;51.462;6.902;2022-09-01T01:04:42;1.58;;;0.90;;
23046;SDS011;11691;51.462;6.902;2022-09-01T01:07:10;9.07;;;1.35;;
23046;SDS011;11691;51.462;6.902;2022-09-01T01:09:37;2.67;;;1.40;;
23046;SDS011;11691;51.462;6.902;2022-09-01T01:12:05;2.13;;;0.95;;
23046;SDS011;11691;51.462;6.902;2022-09-01T01:14:33;1.90;;;1.00;;
23046;SDS011;11691;51.462;6.902;2022-09-01T01:17:00;2.78;;;1.00;;
23046;SDS011;11691;51.462;6.902;2022-09-01T01:22:28;4.43;;;0.98;;
23046;SDS011;11691;51.462;6.902;2022-09-01T01:25:18;2.90;;;1.05;;
23046;SDS011;11691;51.462;6.902;2022-09-01T01:27:46;2.08;;;1.27;;
23046;SDS011;11691;51.462;6.902;2022-09-01T01:30:12;4.65;;;1.20;;
23046;SDS011;11691;51.462;6.902;2022-09-01T01:32:38;3.47;;;1.10;;
23046;SDS011;11691;51.462;6.902;2022-09-01T01:35:12;1.98;;;1.00;;
23046;SDS011;11691;51.462;6.902;2022-09-01T01:37:40;2.75;;;1.15;;
23046;SDS011;11691;51.462;6.902;2022-09-01T01:40:17;2.38;;;1.13;;
23046;SDS011;11691;51.462;6.902;2022-09-01T01:42:44;2.05;;;1.00;;
23046;SDS011;11691;51.462;6.902;2022-09-01T01:45:12;3.03;;;1.30;;
23046;SDS011;11691;51.462;6.902;2022-09-01T01:47:41;2.35;;;0.90;;
23046;SDS011;11691;51.462;6.902;2022-09-01T01:50:08;3.80;;;1.15;;
23046;SDS011;11691;51.462;6.902;2022-09-01T01:52:35;1.63;;;0.90;;
23046;SDS011;11691;51.462;6.902;2022-09-01T01:55:01;1.73;;;1.08;;
23046;SDS011;11691;51.462;6.902;2022-09-01T01:57:27;4.40;;;1.17;;
23046;SDS011;11691;51.462;6.902;2022-09-01T01:59:56;2.60;;;1.15;;
23046;SDS011;11691;51.462;6.902;2022-09-01T02:02:22;3.15;;;1.23;;
23046;SDS011;11691;51.462;6.902;2022-09-01T02:04:48;3.00;;;1.25;;
23046;SDS011;11691;51.462;6.902;2022-09-01T02:07:14;2.80;;;1.35;;
23046;SDS011;11691;51.462;6.902;2022-09-01T02:09:40;2.65;;;1.17;;
23046;SDS011;11691;51.462;6.902;2022-09-01T02:12:10;2.80;;;1.17;;
23046;SDS011;11691;51.462;6.902;2022-09-01T02:14:36;1.80;;;1.00;;
23046;SDS011;11691;51.462;6.902;2022-09-01T02:17:02;2.60;;;1.33;;
23046;SDS011;11691;51.462;6.902;2022-09-01T02:19:31;3.10;;;1.30;;
23046;SDS011;11691;51.462;6.902;2022-09-01T02:22:00;3.40;;;1.02;;
23046;SDS011;11691;51.462;6.902;2022-09-01T02:24:26;2.38;;;1.00;;
23046;SDS011;11691;51.462;6.902;2022-09-01T02:26:55;5.07;;;1.25;;
23046;SDS011;11691;51.462;6.902;2022-09-01T02:29:24;6.97;;;1.20;;
23046;SDS011;11691;51.462;6.902;2022-09-01T02:31:53;2.90;;;1.10;;
23046;SDS011;11691;51.462;6.902;2022-09-01T02:34:20;2.30;;;1.00;;
23046;SDS011;11691;51.462;6.902;2022-09-01T02:36:49;2.80;;;1.35;;
23046;SDS011;11691;51.462;6.902;2022-09-01T02:39:23;4.70;;;1.38;;
23046;SDS011;11691;51.462;6.902;2022-09-01T02:41:51;4.07;;;1.35;;
23046;SDS011;11691;51.462;6.902;2022-09-01T02:44:17;3.67;;;1.20;;
23046;SDS011;11691;51.462;6.902;2022-09-01T02:46:46;2.55;;;1.20;;
23046;SDS011;11691;51.462;6.902;2022-09-01T02:49:17;3.33;;;1.10;;
23046;SDS011;11691;51.462;6.902;2022-09-01T02:51:47;4.13;;;1.17;;
23046;SDS011;11691;51.462;6.902;2022-09-01T02:54:18;2.25;;;1.02;;
23046;SDS011;11691;51.462;6.902;2022-09-01T02:56:46;2.08;;;1.27;;
23046;SDS011;11691;51.462;6.902;2022-09-01T02:59:17;6.90;;;1.20;;
23046;SDS011;11691;51.462;6.902;2022-09-01T03:01:46;2.22;;;1.40;;
23046;SDS011;11691;51.462;6.902;2022-09-01T03:04:15;3.00;;;1.20;;
23046;SDS011;11691;51.462;6.902;2022-09-01T03:06:42;3.55;;;0.93;;
23046;SDS011;11691;51.462;6.902;2022-09-01T03:09:10;4.63;;;1.38;;
23046;SDS011;11691;51.462;6.902;2022-09-01T03:11:39;2.92;;;1.20;;
23046;SDS011;11691;51.462;6.902;2022-09-01T03:14:06;2.13;;;1.20;;
23046;SDS011;11691;51.462;6.902;2022-09-01T03:16:32;2.08;;;1.00;;
23046;SDS011;11691;51.462;6.902;2022-09-01T03:18:59;1.50;;;1.10;;
23046;SDS011;11691;51.462;6.902;2022-09-01T03:21:27;1.90;;;1.10;;
23046;SDS011;11691;51.462;6.902;2022-09-01T03:23:53;2.83;;;1.45;;
23046;SDS011;11691;51.462;6.902;2022-09-01T03:26:22;3.10;;;0.90;;
23046;SDS011;11691;51.462;6.902;2022-09-01T03:28:49;2.22;;;1.30;;
23046;SDS011;11691;51.462;6.902;2022-09-01T03:31:16;1.77;;;1.00;;
23046;SDS011;11691;51.462;6.902;2022-09-01T03:33:42;3.53;;;1.20;;
23046;SDS011;11691;51.462;6.902;2022-09-01T03:36:08;1.83;;;1.10;;
23046;SDS011;11691;51.462;6.902;2022-09-01T03:38:43;2.65;;;1.10;;
23046;SDS011;11691;51.462;6.902;2022-09-01T03:41:14;2.30;;;1.27;;
23046;SDS011;11691;51.462;6.902;2022-09-01T03:43:42;3.50;;;1.20;;
23046;SDS011;11691;51.462;6.902;2022-09-01T03:46:08;3.92;;;1.30;;
23046;SDS011;11691;51.462;6.902;2022-09-01T03:48:39;5.10;;;1.27;;
23046;SDS011;11691;51.462;6.902;2022-09-01T03:51:07;1.90;;;1.20;;
23046;SDS011;11691;51.462;6.902;2022-09-01T03:53:34;4.25;;;1.45;;
23046;SDS011;11691;51.462;6.902;2022-09-01T03:56:02;4.07;;;1.40;;
23046;SDS011;11691;51.462;6.902;2022-09-01T03:58:28;3.30;;;1.05;;
23046;SDS011;11691;51.462;6.902;2022-09-01T04:00:55;1.60;;;1.10;;
23046;SDS011;11691;51.462;6.902;2022-09-01T04:03:25;2.80;;;1.10;;
23046;SDS011;11691;51.462;6.902;2022-09-01T04:05:53;3.95;;;1.27;;
23046;SDS011;11691;51.462;6.902;2022-09-01T04:08:20;3.53;;;1.30;;
23046;SDS011;11691;51.462;6.902;2022-09-01T04:10:53;2.95;;;1.25;;
23046;SDS011;11691;51.462;6.902;2022-09-01T04:13:20;3.33;;;1.23;;
23046;SDS011;11691;51.462;6.902;2022-09-01T04:15:47;1.40;;;0.85;;
23046;SDS011;11691;51.462;6.902;2022-09-01T04:18:13;4.70;;;1.02;;
23046;SDS011;11691;51.462;6.902;2022-09-01T04:20:50;5.32;;;1.20;;
23046;SDS011;11691;51.462;6.902;2022-09-01T04:23:17;1.55;;;1.13;;
23046;SDS011;11691;51.462;6.902;2022-09-01T04:25:50;2.17;;;1.33;;
23046;SDS011;11691;51.462;6.902;2022-09-01T04:28:18;2.67;;;1.40;;
23046;SDS011;11691;51.462;6.902;2022-09-01T04:30:51;4.03;;;1.52;;
23046;SDS011;11691;51.462;6.902;2022-09-01T04:33:19;2.78;;;1.30;;
23046;SDS011;11691;51.462;6.902;2022-09-01T04:35:46;3.35;;;1.40;;
23046;SDS011;11691;51.462;6.902;2022-09-01T04:38:14;4.18;;;1.20;;
23046;SDS011;11691;51.462;6.902;2022-09-01T04:40:41;2.63;;;1.00;;
23046;SDS011;11691;51.462;6.902;2022-09-01T04:43:07;3.05;;;1.10;;
23046;SDS011;11691;51.462;6.902;2022-09-01T04:45:34;3.78;;;1.10;;
23046;SDS011;11691;51.462;6.902;2022-09-01T04:48:00;5.90;;;1.20;;
23046;SDS011;11691;51.462;6.902;2022-09-01T04:50:27;4.75;;;1.40;;
23046;SDS011;11691;51.462;6.902;2022-09-01T04:52:56;7.00;;;1.70;;
23046;SDS011;11691;51.462;6.902;2022-09-01T04:55:26;4.70;;;1.10;;
23046;SDS011;11691;51.462;6.902;2022-09-01T04:57:54;4.72;;;0.98;;
23046;SDS011;11691;51.462;6.902;2022-09-01T05:00:21;8.02;;;1.45;;
23046;SDS011;11691;51.462;6.902;2022-09-01T05:02:49;2.95;;;1.30;;
23046;SDS011;11691;51.462;6.902;2022-09-01T05:05:18;3.05;;;1.55;;
23046;SDS011;11691;51.462;6.902;2022-09-01T05:07:44;5.55;;;1.50;;
23046;SDS011;11691;51.462;6.902;2022-09-01T05:10:11;3.55;;;1.40;;
23046;SDS011;11691;51.462;6.902;2022-09-01T05:12:37;1.95;;;1.10;;
23046;SDS011;11691;51.462;6.902;2022-09-01T05:15:05;6.38;;;1.33;;
23046;SDS011;11691;51.462;6.902;2022-09-01T05:17:33;4.07;;;1.33;;
23046;SDS011;11691;51.462;6.902;2022-09-01T05:20:02;5.20;;;1.42;;
23046;SDS011;11691;51.462;6.902;2022-09-01T05:22:28;3.75;;;1.40;;
23046;SDS011;11691;51.462;6.902;2022-09-01T05:24:57;5.40;;;1.35;;
23046;SDS011;11691;51.462;6.902;2022-09-01T05:27:37;2.97;;;1.48;;
23046;SDS011;11691;51.462;6.902;2022-09-01T05:30:05;5.78;;;1.50;;
23046;SDS011;11691;51.462;6.902;2022-09-01T05:32:33;7.75;;;1.50;;
23046;SDS011;11691;51.462;6.902;2022-09-01T05:35:01;8.30;;;1.90;;
23046;SDS011;11691;51.462;6.902;2022-09-01T05:37:32;17.45;;;2.25;;
23046;SDS011;11691;51.462;6.902;2022-09-01T05:40:00;16.65;;;2.20;;
23046;SDS011;11691;51.462;6.902;2022-09-01T05:42:26;5.55;;;2.00;;
23046;SDS011;11691;51.462;6.902;2022-09-01T05:44:53;6.10;;;1.80;;
23046;SDS011;11691;51.462;6.902;2022-09-01T05:47:19;9.27;;;2.17;;
23046;SDS011;11691;51.462;6.902;2022-09-01T05:49:45;8.98;;;1.80;;
23046;SDS011;11691;51.462;6.902;2022-09-01T05:52:13;5.43;;;1.50;;
23046;SDS011;11691;51.462;6.902;2022-09-01T05:54:39;29.20;;;3.28;;
23046;SDS011;11691;51.462;6.902;2022-09-01T05:57:05;9.88;;;2.30;;
23046;SDS011;11691;51.462;6.902;2022-09-01T05:59:31;17.20;;;1.90;;
23046;SDS011;11691;51.462;6.902;2022-09-01T06:01:57;8.75;;;1.80;;
23046;SDS011;11691;51.462;6.902;2022-09-01T06:04:24;8.02;;;1.50;;
23046;SDS011;11691;51.462;6.902;2022-09-01T06:06:50;5.53;;;1.63;;
23046;SDS011;11691;51.462;6.902;2022-09-01T06:09:17;5.18;;;1.80;;
23046;SDS011;11691;51.462;6.902;2022-09-01T06:11:45;3.47;;;1.40;;
23046;SDS011;11691;51.462;6.902;2022-09-01T06:14:11;5.75;;;1.65;;
23046;SDS011;11691;51.462;6.902;2022-09-01T06:16:37;3.58;;;1.45;;
23046;SDS011;11691;51.462;6.902;2022-09-01T06:19:04;12.43;;;1.90;;
23046;SDS011;11691;51.462;6.902;2022-09-01T06:21:30;4.30;;;1.42;;
23046;SDS011;11691;51.462;6.902;2022-09-01T06:23:56;3.05;;;1.60;;
23046;SDS011;11691;51.462;6.902;2022-09-01T06:26:24;3.42;;;1.50;;
23046;SDS011;11691;51.462;6.902;2022-09-01T06:29:00;4.75;;;1.77;;
23046;SDS011;11691;51.462;6.902;2022-09-01T06:31:29;4.18;;;1.70;;
23046;SDS011;11691;51.462;6.902;2022-09-01T06:34:02;4.75;;;1.63;;
23046;SDS011;11691;51.462;6.902;2022-09-01T06:36:29;11.80;;;2.40;;
23046;SDS011;11691;51.462;6.902;2022-09-01T06:39:03;5.45;;;1.80;;
23046;SDS011;11691;51.462;6.902;2022-09-01T06:41:29;14.07;;;2.47;;
23046;SDS011;11691;51.462;6.902;2022-09-01T06:43:55;15.77;;;2.53;;
23046;SDS011;11691;51.462;6.902;2022-09-01T06:46:22;6.38;;;2.45;;
23046;SDS011;11691;51.462;6.902;2022-09-01T06:48:53;4.90;;;1.25;;
23046;SDS011;11691;51.462;6.902;2022-09-01T06:51:20;21.48;;;3.05;;
23046;SDS011;11691;51.462;6.902;2022-09-01T06:53:48;4.93;;;1.52;;
23046;SDS011;11691;51.462;6.902;2022-09-01T06:56:17;5.03;;;1.33;;
23046;SDS011;11691;51.462;6.902;2022-09-01T06:58:43;4.80;;;1.48;;
23046;SDS011;11691;51.462;6.902;2022-09-01T07:01:13;3.67;;;1.30;;
23046;SDS011;11691;51.462;6.902;2022-09-01T07:03:42;15.70;;;3.20;;
23046;SDS011;11691;51.462;6.902;2022-09-01T07:06:08;21.08;;;2.95;;
23046;SDS011;11691;51.462;6.902;2022-09-01T07:08:35;28.52;;;3.47;;
23046;SDS011;11691;51.462;6.902;2022-09-01T07:11:04;4.10;;;1.50;;
23046;SDS011;11691;51.462;6.902;2022-09-01T07:13:31;9.60;;;2.20;;
23046;SDS011;11691;51.462;6.902;2022-09-01T07:15:59;6.65;;;1.77;;
23046;SDS011;11691;51.462;6.902;2022-09-01T07:18:26;5.00;;;1.48;;
23046;SDS011;11691;51.462;6.902;2022-09-01T07:20:52;3.00;;;1.15;;
23046;SDS011;11691;51.462;6.902;2022-09-01T07:23:19;4.95;;;1.50;;
23046;SDS011;11691;51.462;6.902;2022-09-01T07:25:46;14.60;;;1.55;;
23046;SDS011;11691;51.462;6.902;2022-09-01T07:28:14;4.10;;;1.10;;
23046;SDS011;11691;51.462;6.902;2022-09-01T07:30:46;6.47;;;1.60;;
23046;SDS011;11691;51.462;6.902;2022-09-01T07:33:14;3.60;;;1.10;;
23046;SDS011;11691;51.462;6.902;2022-09-01T07:35:41;4.82;;;1.10;;
23046;SDS011;11691;51.462;6.902;2022-09-01T07:38:08;6.32;;;1.30;;
23046;SDS011;11691;51.462;6.902;2022-09-01T07:40:38;2.70;;;1.00;;
23046;SDS011;11691;51.462;6.902;2022-09-01T07:43:06;6.80;;;1.27;;
23046;SDS011;11691;51.462;6.902;2022-09-01T07:45:46;6.32;;;1.23;;
23046;SDS011;11691;51.462;6.902;2022-09-01T07:48:13;11.18;;;1.63;;
23046;SDS011;11691;51.462;6.902;2022-09-01T07:50:44;17.48;;;2.65;;
23046;SDS011;11691;51.462;6.902;2022-09-01T07:53:12;16.58;;;2.28;;
23046;SDS011;11691;51.462;6.902;2022-09-01T07:55:42;24.35;;;3.72;;
23046;SDS011;11691;51.462;6.902;2022-09-01T07:58:08;6.72;;;1.63;;
23046;SDS011;11691;51.462;6.902;2022-09-01T08:00:34;15.23;;;2.63;;
23046;SDS011;11691;51.462;6.902;2022-09-01T08:03:01;5.57;;;1.27;;
23046;SDS011;11691;51.462;6.902;2022-09-01T08:05:27;8.63;;;1.20;;
23046;SDS011;11691;51.462;6.902;2022-09-01T08:07:53;6.25;;;1.10;;
23046;SDS011;11691;51.462;6.902;2022-09-01T08:10:20;3.33;;;1.00;;
23046;SDS011;11691;51.462;6.902;2022-09-01T08:12:46;3.28;;;1.10;;
23046;SDS011;11691;51.462;6.902;2022-09-01T08:15:12;4.85;;;1.02;;
23046;SDS011;11691;51.462;6.902;2022-09-01T08:17:38;7.40;;;1.00;;
23046;SDS011;11691;51.462;6.902;2022-09-01T08:20:05;8.27;;;1.35;;
23046;SDS011;11691;51.462;6.902;2022-09-01T08:22:33;6.07;;;1.10;;
23046;SDS011;11691;51.462;6.902;2022-09-01T08:25:01;4.88;;;1.40;;
23046;SDS011;11691;51.462;6.902;2022-09-01T08:27:27;6.50;;;1.00;;
23046;SDS011;11691;51.462;6.902;2022-09-01T08:29:53;3.58;;;1.20;;
23046;SDS011;11691;51.462;6.902;2022-09-01T08:32:19;1.40;;;0.75;;
23046;SDS011;11691;51.462;6.902;2022-09-01T08:34:45;2.38;;;1.08;;
23046;SDS011;11691;51.462;6.902;2022-09-01T08:37:11;4.22;;;1.08;;
23046;SDS011;11691;51.462;6.902;2022-09-01T08:39:37;5.80;;;0.80;;
23046;SDS011;11691;51.462;6.902;2022-09-01T08:47:45;3.15;;;0.90;;
23046;SDS011;11691;51.462;6.902;2022-09-01T08:50:11;3.22;;;1.02;;
23046;SDS011;11691;51.462;6.902;2022-09-01T08:52:39;4.10;;;0.93;;
23046;SDS011;11691;51.462;6.902;2022-09-01T08:55:13;1.63;;;0.65;;
23046;SDS011;11691;51.462;6.902;2022-09-01T08:57:42;3.13;;;1.00;;
23046;SDS011;11691;51.462;6.902;2022-09-01T09:00:11;3.13;;;0.77;;
23046;SDS011;11691;51.462;6.902;2022-09-01T09:10:53;2.42;;;0.80;;
23046;SDS011;11691;51.462;6.902;2022-09-01T09:21:44;2.10;;;0.70;;
23046;SDS011;11691;51.462;6.902;2022-09-01T09:24:13;3.17;;;0.80;;
23046;SDS011;11691;51.462;6.902;2022-09-01T09:26:40;5.82;;;0.90;;
23046;SDS011;11691;51.462;6.902;2022-09-01T09:29:06;2.15;;;0.82;;
23046;SDS011;11691;51.462;6.902;2022-09-01T09:31:34;1.48;;;0.63;;
23046;SDS011;11691;51.462;6.902;2022-09-01T09:34:02;7.43;;;1.08;;
23046;SDS011;11691;51.462;6.902;2022-09-01T09:36:29;2.85;;;0.73;;
23046;SDS011;11691;51.462;6.902;2022-09-01T09:39:16;2.30;;;0.82;;
23046;SDS011;11691;51.462;6.902;2022-09-01T09:41:43;1.38;;;0.63;;
23046;SDS011;11691;51.462;6.902;2022-09-01T09:44:29;1.50;;;0.57;;
23046;SDS011;11691;51.462;6.902;2022-09-01T09:46:56;2.50;;;0.80;;
23046;SDS011;11691;51.462;6.902;2022-09-01T09:49:24;3.30;;;0.73;;
23046;SDS011;11691;51.462;6.902;2022-09-01T09:51:52;2.40;;;0.68;;
23046;SDS011;11691;51.462;6.902;2022-09-01T09:54:23;2.65;;;0.63;;
23046;SDS011;11691;51.462;6.902;2022-09-01T09:57:11;3.13;;;0.70;;
23046;SDS011;11691;51.462;6.902;2022-09-01T10:04:43;2.90;;;0.60;;
23046;SDS011;11691;51.462;6.902;2022-09-01T10:10:24;4.55;;;0.75;;
23046;SDS011;11691;51.462;6.902;2022-09-01T10:12:53;1.30;;;0.77;;
23046;SDS011;11691;51.462;6.902;2022-09-01T10:15:21;1.77;;;0.73;;
23046;SDS011;11691;51.462;6.902;2022-09-01T10:17:50;0.95;;;0.57;;
23046;SDS011;11691;51.462;6.902;2022-09-01T10:20:18;2.17;;;0.70;;
23046;SDS011;11691;51.462;6.902;2022-09-01T10:22:49;1.48;;;0.70;;
23046;SDS011;11691;51.462;6.902;2022-09-01T10:25:20;1.98;;;1.13;;
23046;SDS011;11691;51.462;6.902;2022-09-01T10:27:54;4.18;;;0.70;;
23046;SDS011;11691;51.462;6.902;2022-09-01T10:30:21;1.92;;;0.90;;
23046;SDS011;11691;51.462;6.902;2022-09-01T10:32:48;1.23;;;0.70;;
23046;SDS011;11691;51.462;6.902;2022-09-01T10:37:51;3.90;;;1.00;;
23046;SDS011;11691;51.462;6.902;2022-09-01T10:42:47;3.17;;;0.60;;
23046;SDS011;11691;51.462;6.902;2022-09-01T10:45:34;2.63;;;0.80;;
23046;SDS011;11691;51.462;6.902;2022-09-01T10:50:44;2.10;;;0.88;;
23046;SDS011;11691;51.462;6.902;2022-09-01T10:53:34;2.20;;;0.70;;
23046;SDS011;11691;51.462;6.902;2022-09-01T10:56:35;4.03;;;0.70;;
23046;SDS011;11691;51.462;6.902;2022-09-01T11:17:21;1.58;;;0.90;;
23046;SDS011;11691;51.462;6.902;2022-09-01T11:19:58;5.20;;;0.90;;
23046;SDS011;11691;51.462;6.902;2022-09-01T11:25:06;2.05;;;1.00;;
23046;SDS011;11691;51.462;6.902;2022-09-01T11:28:07;1.67;;;0.80;;
23046;SDS011;11691;51.462;6.902;2022-09-01T11:30:33;3.55;;;0.90;;
23046;SDS011;11691;51.462;6.902;2022-09-01T11:33:07;3.40;;;0.70;;
23046;SDS011;11691;51.462;6.902;2022-09-01T11:35:42;1.10;;;0.85;;
23046;SDS011;11691;51.462;6.902;2022-09-01T11:38:10;1.45;;;0.77;;
23046;SDS011;11691;51.462;6.902;2022-09-01T11:40:37;1.63;;;0.90;;
23046;SDS011;11691;51.462;6.902;2022-09-01T11:43:07;3.40;;;0.90;;
23046;SDS011;11691;51.462;6.902;2022-09-01T11:45:42;5.30;;;1.17;;
23046;SDS011;11691;51.462;6.902;2022-09-01T11:48:10;2.70;;;0.90;;
23046;SDS011;11691;51.462;6.902;2022-09-01T11:50:38;2.13;;;0.95;;
23046;SDS011;11691;51.462;6.902;2022-09-01T11:53:19;2.10;;;0.93;;
23046;SDS011;11691;51.462;6.902;2022-09-01T11:55:50;4.50;;;1.08;;
23046;SDS011;11691;51.462;6.902;2022-09-01T12:00:53;1.77;;;1.10;;
23046;SDS011;11691;51.462;6.902;2022-09-01T12:03:24;2.78;;;0.70;;
23046;SDS011;11691;51.462;6.902;2022-09-01T12:06:09;18.42;;;1.98;;
23046;SDS011;11691;51.462;6.902;2022-09-01T12:08:36;2.10;;;0.73;;
23046;SDS011;11691;51.462;6.902;2022-09-01T12:11:09;7.38;;;1.30;;
23046;SDS011;11691;51.462;6.902;2022-09-01T12:13:36;19.00;;;2.05;;
23046;SDS011;11691;51.462;6.902;2022-09-01T12:16:05;4.50;;;1.10;;
23046;SDS011;11691;51.462;6.902;2022-09-01T12:18:34;1.77;;;0.85;;
23046;SDS011;11691;51.462;6.902;2022-09-01T12:21:03;3.90;;;0.90;;
23046;SDS011;11691;51.462;6.902;2022-09-01T12:26:07;3.10;;;0.85;;
23046;SDS011;11691;51.462;6.902;2022-09-01T12:28:36;7.57;;;1.10;;
23046;SDS011;11691;51.462;6.902;2022-09-01T12:31:05;7.53;;;0.95;;
23046;SDS011;11691;51.462;6.902;2022-09-01T12:33:33;3.13;;;1.00;;
23046;SDS011;11691;51.462;6.902;2022-09-01T12:38:40;4.78;;;0.93;;
23046;SDS011;11691;51.462;6.902;2022-09-01T12:44:27;3.95;;;0.88;;
23046;SDS011;11691;51.462;6.902;2022-09-01T12:47:00;15.70;;;1.75;;
23046;SDS011;11691;51.462;6.902;2022-09-01T12:49:34;4.28;;;1.00;;
23046;SDS011;11691;51.462;6.902;2022-09-01T12:52:12;6.97;;;1.00;;
23046;SDS011;11691;51.462;6.902;2022-09-01T12:54:46;3.75;;;0.88;;
23046;SDS011;11691;51.462;6.902;2022-09-01T12:57:23;7.65;;;1.30;;
23046;SDS011;11691;51.462;6.902;2022-09-01T13:07:46;1.25;;;0.65;;
23046;SDS011;11691;51.462;6.902;2022-09-01T13:10:12;2.25;;;0.93;;
23046;SDS011;11691;51.462;6.902;2022-09-01T13:12:41;2.28;;;0.80;;
23046;SDS011;11691;51.462;6.902;2022-09-01T13:15:09;6.25;;;1.10;;
23046;SDS011;11691;51.462;6.902;2022-09-01T13:17:35;3.13;;;0.80;;
23046;SDS011;11691;51.462;6.902;2022-09-01T13:20:02;2.50;;;1.20;;
23046;SDS011;11691;51.462;6.902;2022-09-01T13:22:29;3.70;;;0.77;;
23046;SDS011;11691;51.462;6.902;2022-09-01T13:24:55;6.32;;;1.20;;
23046;SDS011;11691;51.462;6.902;2022-09-01T13:27:21;2.50;;;0.80;;
23046;SDS011;11691;51.462;6.902;2022-09-01T13:29:48;4.00;;;1.00;;
23046;SDS011;11691;51.462;6.902;2022-09-01T13:32:14;6.95;;;1.00;;
23046;SDS011;11691;51.462;6.902;2022-09-01T13:34:41;4.57;;;1.20;;
23046;SDS011;11691;51.462;6.902;2022-09-01T13:37:07;2.10;;;0.77;;
23046;SDS011;11691;51.462;6.902;2022-09-01T13:39:32;2.88;;;0.88;;
23046;SDS011;11691;51.462;6.902;2022-09-01T13:41:58;3.95;;;0.90;;
23046;SDS011;11691;51.462;6.902;2022-09-01T13:44:24;1.60;;;0.75;;
23046;SDS011;11691;51.462;6.902;2022-09-01T13:46:50;6.32;;;1.00;;
23046;SDS011;11691;51.462;6.902;2022-09-01T13:49:16;3.15;;;1.05;;
23046;SDS011;11691;51.462;6.902;2022-09-01T13:51:42;3.03;;;0.90;;
23046;SDS011;11691;51.462;6.902;2022-09-01T13:54:08;1.88;;;1.00;;
23046;SDS011;11691;51.462;6.902;2022-09-01T13:56:34;2.53;;;0.80;;
23046;SDS011;11691;51.462;6.902;2022-09-01T13:59:01;3.58;;;0.95;;
23046;SDS011;11691;51.462;6.902;2022-09-01T14:01:27;1.65;;;0.98;;
23046;SDS011;11691;51.462;6.902;2022-09-01T14:03:53;3.50;;;0.80;;
23046;SDS011;11691;51.462;6.902;2022-09-01T14:06:19;6.28;;;1.08;;
23046;SDS011;11691;51.462;6.902;2022-09-01T14:08:45;2.92;;;1.02;;
23046;SDS011;11691;51.462;6.902;2022-09-01T14:11:16;1.40;;;0.90;;
23046;SDS011;11691;51.462;6.902;2022-09-01T14:13:43;1.33;;;0.90;;
23046;SDS011;11691;51.462;6.902;2022-09-01T14:16:10;4.68;;;1.42;;
23046;SDS011;11691;51.462;6.902;2022-09-01T14:18:36;3.08;;;0.82;;
23046;SDS011;11691;51.462;6.902;2022-09-01T14:21:03;2.25;;;1.00;;
23046;SDS011;11691;51.462;6.902;2022-09-01T14:23:29;3.53;;;1.08;;
23046;SDS011;11691;51.462;6.902;2022-09-01T14:25:55;4.03;;;1.20;;
23046;SDS011;11691;51.462;6.902;2022-09-01T14:28:23;1.88;;;1.00;;
23046;SDS011;11691;51.462;6.902;2022-09-01T14:30:49;6.05;;;0.93;;
23046;SDS011;11691;51.462;6.902;2022-09-01T14:33:15;4.28;;;1.13;;
23046;SDS011;11691;51.462;6.902;2022-09-01T14:35:43;3.60;;;0.90;;
23046;SDS011;11691;51.462;6.902;2022-09-01T14:38:09;1.95;;;0.75;;
23046;SDS011;11691;51.462;6.902;2022-09-01T14:40:37;2.30;;;1.00;;
23046;SDS011;11691;51.462;6.902;2022-09-01T14:43:04;3.03;;;1.02;;
23046;SDS011;11691;51.462;6.902;2022-09-01T14:45:33;3.45;;;1.33;;
23046;SDS011;11691;51.462;6.902;2022-09-01T14:48:01;4.78;;;1.00;;
23046;SDS011;11691;51.462;6.902;2022-09-01T14:50:28;2.05;;;0.90;;
23046;SDS011;11691;51.462;6.902;2022-09-01T14:52:56;1.90;;;0.70;;
23046;SDS011;11691;51.462;6.902;2022-09-01T14:55:25;3.38;;;1.33;;
23046;SDS011;11691;51.462;6.902;2022-09-01T14:57:52;5.13;;;1.15;;
23046;SDS011;11691;51.462;6.902;2022-09-01T15:00:19;11.55;;;1.15;;
23046;SDS011;11691;51.462;6.902;2022-09-01T15:02:46;4.47;;;1.15;;
23046;SDS011;11691;51.462;6.902;2022-09-01T15:05:12;5.53;;;1.10;;
23046;SDS011;11691;51.462;6.902;2022-09-01T15:07:38;2.33;;;1.00;;
23046;SDS011;11691;51.462;6.902;2022-09-01T15:10:06;1.52;;;0.85;;
23046;SDS011;11691;51.462;6.902;2022-09-01T15:12:33;2.30;;;0.88;;
23046;SDS011;11691;51.462;6.902;2022-09-01T15:14:59;3.30;;;0.90;;
23046;SDS011;11691;51.462;6.902;2022-09-01T15:17:26;2.33;;;0.90;;
23046;SDS011;11691;51.462;6.902;2022-09-01T15:19:52;2.97;;;1.10;;
23046;SDS011;11691;51.462;6.902;2022-09-01T15:22:18;1.55;;;0.90;;
23046;SDS011;11691;51.462;6.902;2022-09-01T15:24:45;5.43;;;1.10;;
23046;SDS011;11691;51.462;6.902;2022-09-01T15:27:11;2.03;;;1.05;;
23046;SDS011;11691;51.462;6.902;2022-09-01T15:29:37;2.35;;;0.80;;
23046;SDS011;11691;51.462;6.902;2022-09-01T15:32:12;3.30;;;1.00;;
23046;SDS011;11691;51.462;6.902;2022-09-01T15:34:40;3.33;;;1.10;;
23046;SDS011;11691;51.462;6.902;2022-09-01T15:37:06;1.55;;;0.88;;
23046;SDS011;11691;51.462;6.902;2022-09-01T15:39:32;4.90;;;0.98;;
23046;SDS011;11691;51.462;6.902;2022-09-01T15:41:59;1.40;;;0.80;;
23046;SDS011;11691;51.462;6.902;2022-09-01T15:44:26;1.90;;;0.90;;
23046;SDS011;11691;51.462;6.902;2022-09-01T15:46:53;2.95;;;1.00;;
23046;SDS011;11691;51.462;6.902;2022-09-01T15:49:19;3.60;;;0.80;;
23046;SDS011;11691;51.462;6.902;2022-09-01T15:51:45;1.60;;;0.93;;
23046;SDS011;11691;51.462;6.902;2022-09-01T15:54:13;2.85;;;0.85;;
23046;SDS011;11691;51.462;6.902;2022-09-01T15:56:39;3.75;;;0.85;;
23046;SDS011;11691;51.462;6.902;2022-09-01T15:59:06;3.17;;;1.08;;
23046;SDS011;11691;51.462;6.902;2022-09-01T16:01:33;2.97;;;0.90;;
23046;SDS011;11691;51.462;6.902;2022-09-01T16:04:00;5.30;;;0.85;;
23046;SDS011;11691;51.462;6.902;2022-09-01T16:06:27;2.28;;;1.10;;
23046;SDS011;11691;51.462;6.902;2022-09-01T16:08:53;2.60;;;0.88;;
23046;SDS011;11691;51.462;6.902;2022-09-01T16:11:23;2.15;;;0.80;;
23046;SDS011;11691;51.462;6.902;2022-09-01T16:13:50;1.70;;;0.82;;
23046;SDS011;11691;51.462;6.902;2022-09-01T16:24:13;4.18;;;0.88;;